TENO2: Tenkiller Lake

Data processed at Tue May 21 2019 21:30


All information presented herein is the property of the government of the United States of America and may be revised or deleted at any time without prior notice.
Dissemination of this information without the expressed written consent of the Public Affairs Office, Tulsa District U.S. Army Corps of Engineers is strictly prohibited.
These data are gathered electronically and, as presented, have not undergone any form of quality control. These data are not guaranteed to be valid or correct.
Go to home page.
Go to station list.
Go to home page.

Upstream stations:

Downstream station:
Previous Day
Next Day
Current Day
    
SHEF ID:       TENO2     Tenkiller Lake
STATION TYPE:  Reservoir
Flood Pool:  Bottom =   632.00, Top =   667.00

               PRECIP PRECIP(A) ELEVATION   STORAGE   TW-ELEV    INFLOW   RELEASE  AIR-TEMP  WIND-DIRWIND-SPEED REL-HUMID SOLAR-RAD   VOLTAGE  BAT-LOAD
                   in        in        ft     ac-ft        ft       cfs       cfs         F       deg       mph         %      W/m2      volt      volt
              Ccp-Rev   Ccp-Rev   Ccp-Rev   Ccp-Rev   Ccp-Rev  Rev-Regi  Rev-Regi   Ccp-Rev   Ccp-Rev   Ccp-Rev   Ccp-Rev   Ccp-Rev   Ccp-Rev   Ccp-Rev
(US/Central)
05/21 00:00      0.00      ----    647.77    894626    482.22      3103         0     76.59     10.50      0.40     46.97      0.00     13.66     13.01
05/21 01:00      0.00      ----    647.80    895093    482.22      2064         0     73.94     83.90      0.50     47.00      0.00     13.66     12.93
05/21 02:00      0.00      ----    647.82    895405    482.22      2423         0     72.41     66.40      0.20     48.68      0.00     13.66     12.93
05/21 03:00      0.00      ----    647.83    895561    482.22      2423         0     73.11      6.00      2.30     48.93      0.00     13.65     12.93
05/21 04:00      0.00      ----    647.84    895717    482.21      1767         0     71.11     23.60      2.40     46.45      0.00     13.66     12.91
05/21 05:00      0.00      ----    647.84    895717    482.21      1487         0     74.19     70.10      1.90     47.88      0.00     13.66     12.93
05/21 06:00      0.00      ----    647.85    895873    482.21      1143       217     73.83     96.40      3.20     41.76      0.00     13.66     12.92
05/21 07:00      0.00      ----    647.86    896029    482.34      1824      1516     73.67     91.90      3.30     45.75      4.40     13.66     12.92
05/21 08:00      0.00      ----    647.85    895873    485.17      4327      1588     73.58    117.40      4.10     44.57     48.90     13.65     12.91
05/21 09:00      0.00      ----    647.87    896185    485.26      6090      1588     73.42     96.50      2.90     45.71      2.20     13.65     12.90
05/21 10:00      0.00      ----    647.93    897120    485.32      6356      1588     67.42    258.20      2.00     47.57      0.40     13.65     12.92
05/21 11:00      1.06      ----    647.98    897899    485.31      7781      1588     64.96    250.90      0.90     54.68     85.30     13.65     12.91
05/21 12:00      0.03      ----    647.99    898055    485.29      9680      1588     66.38    226.60      2.40     57.04    199.00     13.65     12.92
05/21 13:00      0.00      ----    648.02    898531    485.35      7176      1594     65.59    323.80      1.50     55.66     37.10     13.65     12.92
05/21 14:00      0.01      ----    648.09    899651    485.59      6540      1594     65.75     85.60      1.70     50.28     85.60     13.65     12.94
05/21 15:00      0.00      ----    648.07    899331    485.63      6621         0     65.77    276.50      1.60     47.14     82.50     13.65     12.93
05/21 16:00      0.02      ----    648.11    899971    483.29      6328         0     67.66    255.30      3.00     43.63    580.80     13.65     12.92
05/21 17:00      0.00      ----    648.13    900291    483.07      4899         0     71.13    238.40      4.20     37.29    640.20     13.65     12.92
05/21 18:00      0.00      ----    648.16    900771    482.91      6408         0     72.34    242.50      3.60     33.04    467.10     13.65     12.93
05/21 19:00      0.00      ----    648.20    901411    482.80      6415         0     72.25    258.10      3.00     35.02    163.10     13.65     12.91
05/21 20:00      0.00      ----    648.24    902051    482.70      7170         0     70.21    277.20      1.60     38.15      7.10     13.65     12.92
05/21 21:00      0.00      ----    648.27    902531    482.63      ----      ----     67.15    314.30      1.10     38.38      0.00     13.65     13.03
05/21 22:00      ----      ----      ----      ----      ----      ----      ----      ----      ----      ----      ----      ----      ----      ----
05/21 23:00      ----      ----      ----      ----      ----      ----      ----      ----      ----      ----      ----      ----      ----      ----